sensor_id;sensor_type;location;lat;lon;timestamp;P1;durP1;ratioP1;P2;durP2;ratioP2
17814;SDS011;9031;50.974;11.330;2022-12-18T00:00:43;5.33;;;5.13;;
17814;SDS011;9031;50.974;11.330;2022-12-18T00:03:11;5.97;;;5.77;;
17814;SDS011;9031;50.974;11.330;2022-12-18T00:05:37;6.70;;;6.50;;
17814;SDS011;9031;50.974;11.330;2022-12-18T00:08:10;6.17;;;5.97;;
17814;SDS011;9031;50.974;11.330;2022-12-18T00:10:35;6.07;;;5.87;;
17814;SDS011;9031;50.974;11.330;2022-12-18T00:13:01;10.67;;;9.80;;
17814;SDS011;9031;50.974;11.330;2022-12-18T00:15:26;6.30;;;6.10;;
17814;SDS011;9031;50.974;11.330;2022-12-18T00:17:52;6.60;;;6.40;;
17814;SDS011;9031;50.974;11.330;2022-12-18T00:20:17;9.97;;;9.57;;
17814;SDS011;9031;50.974;11.330;2022-12-18T00:22:50;6.50;;;6.30;;
17814;SDS011;9031;50.974;11.330;2022-12-18T00:25:16;6.63;;;6.43;;
17814;SDS011;9031;50.974;11.330;2022-12-18T00:27:42;6.57;;;6.37;;
17814;SDS011;9031;50.974;11.330;2022-12-18T00:30:07;6.50;;;6.30;;
17814;SDS011;9031;50.974;11.330;2022-12-18T00:32:33;6.77;;;6.57;;
17814;SDS011;9031;50.974;11.330;2022-12-18T00:34:59;6.13;;;5.93;;
17814;SDS011;9031;50.974;11.330;2022-12-18T00:37:24;6.63;;;6.43;;
17814;SDS011;9031;50.974;11.330;2022-12-18T00:39:50;7.70;;;7.40;;
17814;SDS011;9031;50.974;11.330;2022-12-18T00:42:15;7.03;;;6.83;;
17814;SDS011;9031;50.974;11.330;2022-12-18T00:44:59;6.27;;;6.07;;
17814;SDS011;9031;50.974;11.330;2022-12-18T00:47:24;7.03;;;6.83;;
17814;SDS011;9031;50.974;11.330;2022-12-18T00:49:50;6.63;;;6.43;;
17814;SDS011;9031;50.974;11.330;2022-12-18T00:52:15;6.53;;;6.33;;
17814;SDS011;9031;50.974;11.330;2022-12-18T00:54:41;8.27;;;7.97;;
17814;SDS011;9031;50.974;11.330;2022-12-18T00:57:06;13.43;;;12.47;;
17814;SDS011;9031;50.974;11.330;2022-12-18T00:59:32;6.70;;;6.50;;
17814;SDS011;9031;50.974;11.330;2022-12-18T01:01:57;7.60;;;7.30;;
17814;SDS011;9031;50.974;11.330;2022-12-18T01:04:23;5.87;;;5.67;;
17814;SDS011;9031;50.974;11.330;2022-12-18T01:06:49;6.20;;;6.00;;
17814;SDS011;9031;50.974;11.330;2022-12-18T01:09:14;6.67;;;6.47;;
17814;SDS011;9031;50.974;11.330;2022-12-18T01:11:40;5.83;;;5.63;;
17814;SDS011;9031;50.974;11.330;2022-12-18T01:14:05;6.23;;;6.03;;
17814;SDS011;9031;50.974;11.330;2022-12-18T01:16:31;6.53;;;6.33;;
17814;SDS011;9031;50.974;11.330;2022-12-18T01:18:57;6.37;;;6.17;;
17814;SDS011;9031;50.974;11.330;2022-12-18T01:21:22;7.20;;;7.00;;
17814;SDS011;9031;50.974;11.330;2022-12-18T01:23:52;6.10;;;5.90;;
17814;SDS011;9031;50.974;11.330;2022-12-18T01:26:19;6.43;;;6.23;;
17814;SDS011;9031;50.974;11.330;2022-12-18T01:28:45;6.30;;;6.10;;
17814;SDS011;9031;50.974;11.330;2022-12-18T01:31:18;9.60;;;8.97;;
17814;SDS011;9031;50.974;11.330;2022-12-18T01:33:46;6.93;;;6.73;;
17814;SDS011;9031;50.974;11.330;2022-12-18T01:36:26;6.50;;;6.30;;
17814;SDS011;9031;50.974;11.330;2022-12-18T01:38:54;6.30;;;6.10;;
17814;SDS011;9031;50.974;11.330;2022-12-18T01:41:21;6.77;;;6.57;;
17814;SDS011;9031;50.974;11.330;2022-12-18T01:43:51;6.20;;;6.00;;
17814;SDS011;9031;50.974;11.330;2022-12-18T01:46:22;10.37;;;9.87;;
17814;SDS011;9031;50.974;11.330;2022-12-18T01:48:50;6.13;;;5.93;;
17814;SDS011;9031;50.974;11.330;2022-12-18T01:51:24;7.27;;;7.07;;
17814;SDS011;9031;50.974;11.330;2022-12-18T01:53:51;6.53;;;6.33;;
17814;SDS011;9031;50.974;11.330;2022-12-18T01:56:18;10.83;;;10.30;;
17814;SDS011;9031;50.974;11.330;2022-12-18T01:58:55;6.97;;;6.77;;
17814;SDS011;9031;50.974;11.330;2022-12-18T02:01:28;7.20;;;7.00;;
17814;SDS011;9031;50.974;11.330;2022-12-18T02:03:55;6.73;;;6.53;;
17814;SDS011;9031;50.974;11.330;2022-12-18T02:06:28;7.93;;;7.63;;
17814;SDS011;9031;50.974;11.330;2022-12-18T02:09:07;6.67;;;6.47;;
17814;SDS011;9031;50.974;11.330;2022-12-18T02:11:39;7.67;;;7.40;;
17814;SDS011;9031;50.974;11.330;2022-12-18T02:14:21;7.03;;;6.83;;
17814;SDS011;9031;50.974;11.330;2022-12-18T02:17:03;6.40;;;6.20;;
17814;SDS011;9031;50.974;11.330;2022-12-18T02:19:47;6.63;;;6.43;;
17814;SDS011;9031;50.974;11.330;2022-12-18T02:28:17;7.73;;;7.47;;
17814;SDS011;9031;50.974;11.330;2022-12-18T02:30:47;7.97;;;7.67;;
17814;SDS011;9031;50.974;11.330;2022-12-18T02:33:15;8.13;;;7.83;;
17814;SDS011;9031;50.974;11.330;2022-12-18T02:35:41;6.30;;;6.10;;
17814;SDS011;9031;50.974;11.330;2022-12-18T02:38:09;7.37;;;7.17;;
17814;SDS011;9031;50.974;11.330;2022-12-18T02:40:35;6.63;;;6.43;;
17814;SDS011;9031;50.974;11.330;2022-12-18T02:43:09;10.33;;;9.93;;
17814;SDS011;9031;50.974;11.330;2022-12-18T02:45:45;6.80;;;6.60;;
17814;SDS011;9031;50.974;11.330;2022-12-18T02:48:31;7.87;;;7.57;;
17814;SDS011;9031;50.974;11.330;2022-12-18T02:51:00;6.47;;;6.27;;
17814;SDS011;9031;50.974;11.330;2022-12-18T02:53:41;7.33;;;7.13;;
17814;SDS011;9031;50.974;11.330;2022-12-18T02:56:19;8.27;;;7.97;;
17814;SDS011;9031;50.974;11.330;2022-12-18T03:01:38;6.43;;;6.23;;
17814;SDS011;9031;50.974;11.330;2022-12-18T03:04:26;7.00;;;6.80;;
17814;SDS011;9031;50.974;11.330;2022-12-18T03:07:09;7.03;;;6.83;;
17814;SDS011;9031;50.974;11.330;2022-12-18T03:09:44;8.63;;;8.33;;
17814;SDS011;9031;50.974;11.330;2022-12-18T03:12:18;6.47;;;6.27;;
17814;SDS011;9031;50.974;11.330;2022-12-18T03:17:30;6.80;;;6.60;;
17814;SDS011;9031;50.974;11.330;2022-12-18T03:19:59;7.13;;;6.93;;
17814;SDS011;9031;50.974;11.330;2022-12-18T03:22:30;7.20;;;7.00;;
17814;SDS011;9031;50.974;11.330;2022-12-18T03:24:59;6.87;;;6.67;;
17814;SDS011;9031;50.974;11.330;2022-12-18T03:27:27;10.73;;;9.80;;
17814;SDS011;9031;50.974;11.330;2022-12-18T03:29:59;6.87;;;6.67;;
17814;SDS011;9031;50.974;11.330;2022-12-18T03:32:33;10.63;;;10.10;;
17814;SDS011;9031;50.974;11.330;2022-12-18T03:35:09;7.37;;;7.17;;
17814;SDS011;9031;50.974;11.330;2022-12-18T03:37:38;11.83;;;11.33;;
17814;SDS011;9031;50.974;11.330;2022-12-18T03:40:04;7.67;;;7.40;;
17814;SDS011;9031;50.974;11.330;2022-12-18T03:45:07;6.07;;;5.87;;
17814;SDS011;9031;50.974;11.330;2022-12-18T03:50:20;7.93;;;7.63;;
17814;SDS011;9031;50.974;11.330;2022-12-18T03:53:14;7.00;;;6.80;;
17814;SDS011;9031;50.974;11.330;2022-12-18T03:55:45;6.53;;;6.33;;
17814;SDS011;9031;50.974;11.330;2022-12-18T03:58:16;7.77;;;7.50;;
17814;SDS011;9031;50.974;11.330;2022-12-18T04:00:45;6.97;;;6.77;;
17814;SDS011;9031;50.974;11.330;2022-12-18T04:03:12;6.70;;;6.50;;
17814;SDS011;9031;50.974;11.330;2022-12-18T04:05:40;6.47;;;6.27;;
17814;SDS011;9031;50.974;11.330;2022-12-18T04:08:08;7.13;;;6.93;;
17814;SDS011;9031;50.974;11.330;2022-12-18T04:10:34;5.90;;;5.70;;
17814;SDS011;9031;50.974;11.330;2022-12-18T04:12:59;6.33;;;6.13;;
17814;SDS011;9031;50.974;11.330;2022-12-18T04:15:25;7.20;;;7.00;;
17814;SDS011;9031;50.974;11.330;2022-12-18T04:17:50;7.33;;;7.13;;
17814;SDS011;9031;50.974;11.330;2022-12-18T04:20:16;6.53;;;6.33;;
17814;SDS011;9031;50.974;11.330;2022-12-18T04:22:42;6.50;;;6.30;;
17814;SDS011;9031;50.974;11.330;2022-12-18T04:25:08;7.20;;;7.00;;
17814;SDS011;9031;50.974;11.330;2022-12-18T04:27:33;7.97;;;7.67;;
17814;SDS011;9031;50.974;11.330;2022-12-18T04:29:59;8.80;;;8.50;;
17814;SDS011;9031;50.974;11.330;2022-12-18T04:32:24;8.07;;;7.77;;
17814;SDS011;9031;50.974;11.330;2022-12-18T04:34:50;7.97;;;7.67;;
17814;SDS011;9031;50.974;11.330;2022-12-18T04:37:15;7.87;;;7.57;;
17814;SDS011;9031;50.974;11.330;2022-12-18T04:39:41;7.13;;;6.93;;
17814;SDS011;9031;50.974;11.330;2022-12-18T04:42:06;8.67;;;8.37;;
17814;SDS011;9031;50.974;11.330;2022-12-18T04:44:32;7.57;;;7.30;;
17814;SDS011;9031;50.974;11.330;2022-12-18T04:46:57;7.30;;;7.10;;
17814;SDS011;9031;50.974;11.330;2022-12-18T04:49:23;7.10;;;6.90;;
17814;SDS011;9031;50.974;11.330;2022-12-18T04:51:48;6.60;;;6.40;;
17814;SDS011;9031;50.974;11.330;2022-12-18T04:54:14;6.43;;;6.23;;
17814;SDS011;9031;50.974;11.330;2022-12-18T04:56:39;7.20;;;7.00;;
17814;SDS011;9031;50.974;11.330;2022-12-18T04:59:05;8.50;;;8.20;;
17814;SDS011;9031;50.974;11.330;2022-12-18T05:01:33;6.37;;;6.17;;
17814;SDS011;9031;50.974;11.330;2022-12-18T05:03:59;7.60;;;7.33;;
17814;SDS011;9031;50.974;11.330;2022-12-18T05:06:25;8.07;;;7.77;;
17814;SDS011;9031;50.974;11.330;2022-12-18T05:08:50;6.90;;;6.70;;
17814;SDS011;9031;50.974;11.330;2022-12-18T05:11:16;6.83;;;6.63;;
17814;SDS011;9031;50.974;11.330;2022-12-18T05:13:42;7.50;;;7.30;;
17814;SDS011;9031;50.974;11.330;2022-12-18T05:16:09;7.93;;;7.63;;
17814;SDS011;9031;50.974;11.330;2022-12-18T05:18:34;8.07;;;7.77;;
17814;SDS011;9031;50.974;11.330;2022-12-18T05:21:00;7.23;;;7.03;;
17814;SDS011;9031;50.974;11.330;2022-12-18T05:23:26;6.73;;;6.53;;
17814;SDS011;9031;50.974;11.330;2022-12-18T05:25:56;7.87;;;7.57;;
17814;SDS011;9031;50.974;11.330;2022-12-18T05:28:23;7.07;;;6.87;;
17814;SDS011;9031;50.974;11.330;2022-12-18T05:30:51;7.27;;;7.07;;
17814;SDS011;9031;50.974;11.330;2022-12-18T05:33:18;8.27;;;7.97;;
17814;SDS011;9031;50.974;11.330;2022-12-18T05:35:44;7.23;;;7.03;;
17814;SDS011;9031;50.974;11.330;2022-12-18T05:38:14;7.63;;;7.37;;
17814;SDS011;9031;50.974;11.330;2022-12-18T05:40:41;8.33;;;8.03;;
17814;SDS011;9031;50.974;11.330;2022-12-18T05:43:07;12.80;;;12.00;;
17814;SDS011;9031;50.974;11.330;2022-12-18T05:45:36;8.80;;;8.50;;
17814;SDS011;9031;50.974;11.330;2022-12-18T05:48:03;8.27;;;7.97;;
17814;SDS011;9031;50.974;11.330;2022-12-18T05:50:28;8.10;;;7.80;;
17814;SDS011;9031;50.974;11.330;2022-12-18T05:52:54;7.80;;;7.50;;
17814;SDS011;9031;50.974;11.330;2022-12-18T05:55:19;7.90;;;7.60;;
17814;SDS011;9031;50.974;11.330;2022-12-18T05:57:45;7.23;;;7.03;;
17814;SDS011;9031;50.974;11.330;2022-12-18T06:00:10;8.13;;;7.83;;
17814;SDS011;9031;50.974;11.330;2022-12-18T06:02:36;7.57;;;7.33;;
17814;SDS011;9031;50.974;11.330;2022-12-18T06:05:02;8.07;;;7.77;;
17814;SDS011;9031;50.974;11.330;2022-12-18T06:07:28;7.73;;;7.43;;
17814;SDS011;9031;50.974;11.330;2022-12-18T06:09:53;7.40;;;7.20;;
17814;SDS011;9031;50.974;11.330;2022-12-18T06:12:19;8.90;;;8.60;;
17814;SDS011;9031;50.974;11.330;2022-12-18T06:14:44;8.73;;;8.43;;
17814;SDS011;9031;50.974;11.330;2022-12-18T06:17:10;9.60;;;9.10;;
17814;SDS011;9031;50.974;11.330;2022-12-18T06:19:35;8.27;;;7.97;;
17814;SDS011;9031;50.974;11.330;2022-12-18T06:22:01;7.97;;;7.67;;
17814;SDS011;9031;50.974;11.330;2022-12-18T06:24:26;8.23;;;7.93;;
17814;SDS011;9031;50.974;11.330;2022-12-18T06:26:52;7.33;;;7.13;;
17814;SDS011;9031;50.974;11.330;2022-12-18T06:29:17;6.97;;;6.77;;
17814;SDS011;9031;50.974;11.330;2022-12-18T06:31:43;7.00;;;6.80;;
17814;SDS011;9031;50.974;11.330;2022-12-18T06:34:08;7.97;;;7.67;;
17814;SDS011;9031;50.974;11.330;2022-12-18T06:36:34;7.03;;;6.83;;
17814;SDS011;9031;50.974;11.330;2022-12-18T06:38:59;7.43;;;7.23;;
17814;SDS011;9031;50.974;11.330;2022-12-18T06:41:25;8.67;;;8.37;;
17814;SDS011;9031;50.974;11.330;2022-12-18T06:43:51;6.83;;;6.63;;
17814;SDS011;9031;50.974;11.330;2022-12-18T06:46:16;6.63;;;6.43;;
17814;SDS011;9031;50.974;11.330;2022-12-18T06:48:42;8.30;;;8.00;;
17814;SDS011;9031;50.974;11.330;2022-12-18T06:51:07;7.57;;;7.33;;
17814;SDS011;9031;50.974;11.330;2022-12-18T06:53:33;7.80;;;7.50;;
17814;SDS011;9031;50.974;11.330;2022-12-18T06:55:59;8.47;;;8.17;;
17814;SDS011;9031;50.974;11.330;2022-12-18T06:58:28;11.70;;;11.03;;
17814;SDS011;9031;50.974;11.330;2022-12-18T07:00:53;7.37;;;7.17;;
17814;SDS011;9031;50.974;11.330;2022-12-18T07:03:24;7.07;;;6.87;;
17814;SDS011;9031;50.974;11.330;2022-12-18T07:05:49;7.63;;;7.33;;
17814;SDS011;9031;50.974;11.330;2022-12-18T07:08:15;7.20;;;7.00;;
17814;SDS011;9031;50.974;11.330;2022-12-18T07:10:41;8.30;;;8.00;;
17814;SDS011;9031;50.974;11.330;2022-12-18T07:13:07;7.97;;;7.67;;
17814;SDS011;9031;50.974;11.330;2022-12-18T07:15:33;7.93;;;7.63;;
17814;SDS011;9031;50.974;11.330;2022-12-18T07:17:58;8.13;;;7.83;;
17814;SDS011;9031;50.974;11.330;2022-12-18T07:20:23;8.37;;;8.07;;
17814;SDS011;9031;50.974;11.330;2022-12-18T07:22:49;9.13;;;8.83;;
17814;SDS011;9031;50.974;11.330;2022-12-18T07:25:14;7.33;;;7.13;;
17814;SDS011;9031;50.974;11.330;2022-12-18T07:27:40;7.67;;;7.40;;
17814;SDS011;9031;50.974;11.330;2022-12-18T07:30:06;6.87;;;6.67;;
17814;SDS011;9031;50.974;11.330;2022-12-18T07:32:31;7.10;;;6.90;;
17814;SDS011;9031;50.974;11.330;2022-12-18T07:34:57;7.83;;;7.53;;
17814;SDS011;9031;50.974;11.330;2022-12-18T07:37:22;8.40;;;8.10;;
17814;SDS011;9031;50.974;11.330;2022-12-18T07:39:48;7.57;;;7.33;;
17814;SDS011;9031;50.974;11.330;2022-12-18T07:42:13;7.40;;;7.20;;
17814;SDS011;9031;50.974;11.330;2022-12-18T07:44:57;7.60;;;7.37;;
17814;SDS011;9031;50.974;11.330;2022-12-18T07:47:23;8.13;;;7.83;;
17814;SDS011;9031;50.974;11.330;2022-12-18T07:49:49;6.67;;;6.47;;
17814;SDS011;9031;50.974;11.330;2022-12-18T07:52:15;7.93;;;7.63;;
17814;SDS011;9031;50.974;11.330;2022-12-18T07:54:40;7.03;;;6.83;;
17814;SDS011;9031;50.974;11.330;2022-12-18T07:57:06;6.43;;;6.23;;
17814;SDS011;9031;50.974;11.330;2022-12-18T07:59:32;7.63;;;7.37;;
17814;SDS011;9031;50.974;11.330;2022-12-18T08:01:57;8.77;;;8.37;;
17814;SDS011;9031;50.974;11.330;2022-12-18T08:04:23;7.80;;;7.50;;
17814;SDS011;9031;50.974;11.330;2022-12-18T08:06:49;7.17;;;6.97;;
17814;SDS011;9031;50.974;11.330;2022-12-18T08:09:14;7.00;;;6.80;;
17814;SDS011;9031;50.974;11.330;2022-12-18T08:11:40;7.53;;;7.30;;
17814;SDS011;9031;50.974;11.330;2022-12-18T08:14:05;7.13;;;6.93;;
17814;SDS011;9031;50.974;11.330;2022-12-18T08:16:31;7.33;;;7.13;;
17814;SDS011;9031;50.974;11.330;2022-12-18T08:18:56;6.73;;;6.53;;
17814;SDS011;9031;50.974;11.330;2022-12-18T08:21:29;7.20;;;7.00;;
17814;SDS011;9031;50.974;11.330;2022-12-18T08:23:56;8.03;;;7.73;;
17814;SDS011;9031;50.974;11.330;2022-12-18T08:26:24;8.97;;;8.67;;
17814;SDS011;9031;50.974;11.330;2022-12-18T08:28:50;5.73;;;5.53;;
17814;SDS011;9031;50.974;11.330;2022-12-18T08:31:18;6.63;;;6.43;;
17814;SDS011;9031;50.974;11.330;2022-12-18T08:33:44;7.03;;;6.83;;
17814;SDS011;9031;50.974;11.330;2022-12-18T08:36:09;7.00;;;6.80;;
17814;SDS011;9031;50.974;11.330;2022-12-18T08:38:35;6.93;;;6.73;;
17814;SDS011;9031;50.974;11.330;2022-12-18T08:41:01;7.20;;;7.00;;
17814;SDS011;9031;50.974;11.330;2022-12-18T08:43:29;7.00;;;6.67;;
17814;SDS011;9031;50.974;11.330;2022-12-18T08:46:13;7.07;;;6.87;;
17814;SDS011;9031;50.974;11.330;2022-12-18T08:48:40;6.23;;;6.03;;
17814;SDS011;9031;50.974;11.330;2022-12-18T08:51:05;6.77;;;6.57;;
17814;SDS011;9031;50.974;11.330;2022-12-18T08:53:31;6.77;;;6.57;;
17814;SDS011;9031;50.974;11.330;2022-12-18T08:55:57;5.87;;;5.67;;
17814;SDS011;9031;50.974;11.330;2022-12-18T08:58:22;7.57;;;7.27;;
17814;SDS011;9031;50.974;11.330;2022-12-18T09:00:48;5.97;;;5.77;;
17814;SDS011;9031;50.974;11.330;2022-12-18T09:03:14;5.97;;;5.77;;
17814;SDS011;9031;50.974;11.330;2022-12-18T09:05:41;5.27;;;5.07;;
17814;SDS011;9031;50.974;11.330;2022-12-18T09:08:07;5.07;;;4.93;;
17814;SDS011;9031;50.974;11.330;2022-12-18T09:10:33;5.37;;;5.17;;
17814;SDS011;9031;50.974;11.330;2022-12-18T09:12:59;5.37;;;5.17;;
17814;SDS011;9031;50.974;11.330;2022-12-18T09:15:25;5.47;;;5.27;;
17814;SDS011;9031;50.974;11.330;2022-12-18T09:17:51;5.23;;;5.07;;
17814;SDS011;9031;50.974;11.330;2022-12-18T09:20:17;7.50;;;7.10;;
17814;SDS011;9031;50.974;11.330;2022-12-18T09:22:44;4.50;;;4.40;;
17814;SDS011;9031;50.974;11.330;2022-12-18T09:25:09;3.97;;;3.87;;
17814;SDS011;9031;50.974;11.330;2022-12-18T09:27:35;3.30;;;3.20;;
17814;SDS011;9031;50.974;11.330;2022-12-18T09:30:00;4.37;;;3.97;;
17814;SDS011;9031;50.974;11.330;2022-12-18T09:32:27;3.60;;;3.50;;
17814;SDS011;9031;50.974;11.330;2022-12-18T09:34:52;2.10;;;2.10;;
17814;SDS011;9031;50.974;11.330;2022-12-18T09:37:18;1.80;;;1.80;;
17814;SDS011;9031;50.974;11.330;2022-12-18T09:39:43;1.73;;;1.73;;
17814;SDS011;9031;50.974;11.330;2022-12-18T09:42:12;2.20;;;2.13;;
17814;SDS011;9031;50.974;11.330;2022-12-18T09:44:46;2.23;;;2.13;;
17814;SDS011;9031;50.974;11.330;2022-12-18T09:47:30;1.20;;;1.20;;
17814;SDS011;9031;50.974;11.330;2022-12-18T09:50:02;1.33;;;1.33;;
17814;SDS011;9031;50.974;11.330;2022-12-18T09:52:40;2.80;;;2.57;;
17814;SDS011;9031;50.974;11.330;2022-12-18T09:57:57;2.20;;;2.20;;
17814;SDS011;9031;50.974;11.330;2022-12-18T10:00:42;4.33;;;4.13;;
17814;SDS011;9031;50.974;11.330;2022-12-18T10:03:09;4.47;;;4.17;;
17814;SDS011;9031;50.974;11.330;2022-12-18T10:05:53;3.53;;;3.43;;
17814;SDS011;9031;50.974;11.330;2022-12-18T10:20:54;4.50;;;4.37;;
17814;SDS011;9031;50.974;11.330;2022-12-18T10:23:27;3.40;;;3.30;;
17814;SDS011;9031;50.974;11.330;2022-12-18T10:26:07;3.43;;;3.33;;
17814;SDS011;9031;50.974;11.330;2022-12-18T10:28:36;3.77;;;3.67;;
17814;SDS011;9031;50.974;11.330;2022-12-18T10:31:07;3.10;;;3.00;;
17814;SDS011;9031;50.974;11.330;2022-12-18T10:33:45;3.03;;;2.93;;
17814;SDS011;9031;50.974;11.330;2022-12-18T10:36:11;3.53;;;3.43;;
17814;SDS011;9031;50.974;11.330;2022-12-18T10:38:37;2.77;;;2.67;;
17814;SDS011;9031;50.974;11.330;2022-12-18T10:43:46;4.00;;;3.90;;
17814;SDS011;9031;50.974;11.330;2022-12-18T10:46:16;3.60;;;3.50;;
17814;SDS011;9031;50.974;11.330;2022-12-18T10:51:22;4.93;;;4.73;;
17814;SDS011;9031;50.974;11.330;2022-12-18T10:56:29;2.70;;;2.67;;
17814;SDS011;9031;50.974;11.330;2022-12-18T10:59:04;2.30;;;2.30;;
17814;SDS011;9031;50.974;11.330;2022-12-18T11:04:17;2.53;;;2.53;;
17814;SDS011;9031;50.974;11.330;2022-12-18T11:07:02;2.87;;;2.77;;
17814;SDS011;9031;50.974;11.330;2022-12-18T11:11:59;2.50;;;2.50;;
17814;SDS011;9031;50.974;11.330;2022-12-18T11:14:32;3.03;;;2.93;;
17814;SDS011;9031;50.974;11.330;2022-12-18T11:17:16;2.30;;;2.23;;
17814;SDS011;9031;50.974;11.330;2022-12-18T11:19:57;2.53;;;2.53;;
17814;SDS011;9031;50.974;11.330;2022-12-18T11:22:28;5.77;;;5.57;;
17814;SDS011;9031;50.974;11.330;2022-12-18T11:24:57;2.83;;;2.73;;
17814;SDS011;9031;50.974;11.330;2022-12-18T11:27:30;2.50;;;2.50;;
17814;SDS011;9031;50.974;11.330;2022-12-18T11:30:09;2.20;;;2.20;;
17814;SDS011;9031;50.974;11.330;2022-12-18T11:32:47;2.30;;;2.30;;
17814;SDS011;9031;50.974;11.330;2022-12-18T11:35:20;2.00;;;2.00;;
17814;SDS011;9031;50.974;11.330;2022-12-18T11:37:59;2.37;;;2.37;;
17814;SDS011;9031;50.974;11.330;2022-12-18T11:40:40;3.80;;;3.63;;
17814;SDS011;9031;50.974;11.330;2022-12-18T11:43:10;2.10;;;2.10;;
17814;SDS011;9031;50.974;11.330;2022-12-18T11:45:49;2.40;;;2.40;;
17814;SDS011;9031;50.974;11.330;2022-12-18T11:48:41;3.00;;;2.90;;
17814;SDS011;9031;50.974;11.330;2022-12-18T11:51:25;3.80;;;3.60;;
17814;SDS011;9031;50.974;11.330;2022-12-18T11:53:56;1.83;;;1.83;;
17814;SDS011;9031;50.974;11.330;2022-12-18T12:01:51;3.30;;;3.20;;
17814;SDS011;9031;50.974;11.330;2022-12-18T12:09:49;1.37;;;1.37;;
17814;SDS011;9031;50.974;11.330;2022-12-18T12:15:28;1.40;;;1.40;;
17814;SDS011;9031;50.974;11.330;2022-12-18T12:18:07;1.37;;;1.37;;
17814;SDS011;9031;50.974;11.330;2022-12-18T12:23:52;1.40;;;1.40;;
17814;SDS011;9031;50.974;11.330;2022-12-18T12:26:33;1.40;;;1.40;;
17814;SDS011;9031;50.974;11.330;2022-12-18T12:34:44;2.90;;;2.80;;
17814;SDS011;9031;50.974;11.330;2022-12-18T12:37:24;2.03;;;2.03;;
17814;SDS011;9031;50.974;11.330;2022-12-18T12:40:14;1.77;;;1.77;;
17814;SDS011;9031;50.974;11.330;2022-12-18T12:42:47;1.50;;;1.50;;
17814;SDS011;9031;50.974;11.330;2022-12-18T12:46:20;1.57;;;1.57;;
17814;SDS011;9031;50.974;11.330;2022-12-18T12:48:44;2.10;;;2.00;;
17814;SDS011;9031;50.974;11.330;2022-12-18T12:51:17;3.00;;;2.90;;
17814;SDS011;9031;50.974;11.330;2022-12-18T12:53:49;1.60;;;1.60;;
17814;SDS011;9031;50.974;11.330;2022-12-18T12:56:16;1.30;;;1.30;;
17814;SDS011;9031;50.974;11.330;2022-12-18T12:58:46;2.43;;;2.37;;
17814;SDS011;9031;50.974;11.330;2022-12-18T13:01:37;1.40;;;1.40;;
17814;SDS011;9031;50.974;11.330;2022-12-18T13:04:21;1.90;;;1.90;;
17814;SDS011;9031;50.974;11.330;2022-12-18T13:06:58;1.63;;;1.63;;
17814;SDS011;9031;50.974;11.330;2022-12-18T13:09:32;1.43;;;1.43;;
17814;SDS011;9031;50.974;11.330;2022-12-18T13:12:10;3.00;;;2.90;;
17814;SDS011;9031;50.974;11.330;2022-12-18T13:15:01;1.70;;;1.70;;
17814;SDS011;9031;50.974;11.330;2022-12-18T13:17:44;1.83;;;1.83;;
17814;SDS011;9031;50.974;11.330;2022-12-18T13:20:11;1.70;;;1.70;;
17814;SDS011;9031;50.974;11.330;2022-12-18T13:22:46;1.57;;;1.57;;
17814;SDS011;9031;50.974;11.330;2022-12-18T13:25:29;1.53;;;1.53;;
17814;SDS011;9031;50.974;11.330;2022-12-18T13:28:09;2.87;;;2.77;;
17814;SDS011;9031;50.974;11.330;2022-12-18T13:41:41;2.00;;;2.00;;
17814;SDS011;9031;50.974;11.330;2022-12-18T13:43:50;2.07;;;1.90;;
17814;SDS011;9031;50.974;11.330;2022-12-18T13:46:25;1.67;;;1.67;;
17814;SDS011;9031;50.974;11.330;2022-12-18T13:51:42;2.90;;;2.80;;
17814;SDS011;9031;50.974;11.330;2022-12-18T13:54:23;1.87;;;1.87;;
17814;SDS011;9031;50.974;11.330;2022-12-18T13:56:55;1.97;;;1.97;;
17814;SDS011;9031;50.974;11.330;2022-12-18T13:59:22;4.27;;;4.03;;
17814;SDS011;9031;50.974;11.330;2022-12-18T14:01:59;1.87;;;1.87;;
17814;SDS011;9031;50.974;11.330;2022-12-18T14:04:27;1.60;;;1.60;;
17814;SDS011;9031;50.974;11.330;2022-12-18T14:09:54;2.53;;;2.43;;
17814;SDS011;9031;50.974;11.330;2022-12-18T14:12:24;2.00;;;2.00;;
17814;SDS011;9031;50.974;11.330;2022-12-18T14:15:20;2.03;;;2.03;;
17814;SDS011;9031;50.974;11.330;2022-12-18T14:17:54;3.37;;;3.27;;
17814;SDS011;9031;50.974;11.330;2022-12-18T14:20:24;2.17;;;2.17;;
17814;SDS011;9031;50.974;11.330;2022-12-18T14:22:51;3.83;;;3.73;;
17814;SDS011;9031;50.974;11.330;2022-12-18T14:25:18;2.00;;;2.00;;
17814;SDS011;9031;50.974;11.330;2022-12-18T14:27:52;2.20;;;2.20;;
17814;SDS011;9031;50.974;11.330;2022-12-18T14:30:32;2.10;;;2.10;;
17814;SDS011;9031;50.974;11.330;2022-12-18T14:33:02;2.13;;;2.13;;
17814;SDS011;9031;50.974;11.330;2022-12-18T14:35:34;2.03;;;2.03;;
17814;SDS011;9031;50.974;11.330;2022-12-18T14:38:19;2.93;;;2.83;;
17814;SDS011;9031;50.974;11.330;2022-12-18T14:40:47;2.00;;;2.00;;
17814;SDS011;9031;50.974;11.330;2022-12-18T14:43:17;2.10;;;2.10;;
17814;SDS011;9031;50.974;11.330;2022-12-18T14:45:43;2.13;;;2.13;;
17814;SDS011;9031;50.974;11.330;2022-12-18T14:50:40;2.07;;;2.07;;
17814;SDS011;9031;50.974;11.330;2022-12-18T14:53:17;4.53;;;4.17;;
17814;SDS011;9031;50.974;11.330;2022-12-18T14:55:46;2.53;;;2.53;;
17814;SDS011;9031;50.974;11.330;2022-12-18T14:58:13;2.70;;;2.67;;
17814;SDS011;9031;50.974;11.330;2022-12-18T15:00:41;2.33;;;2.33;;
17814;SDS011;9031;50.974;11.330;2022-12-18T15:03:07;2.07;;;2.07;;
17814;SDS011;9031;50.974;11.330;2022-12-18T15:05:34;2.33;;;2.33;;
17814;SDS011;9031;50.974;11.330;2022-12-18T15:08:00;2.60;;;2.50;;
17814;SDS011;9031;50.974;11.330;2022-12-18T15:10:28;2.50;;;2.50;;
17814;SDS011;9031;50.974;11.330;2022-12-18T15:18:03;2.10;;;2.10;;
17814;SDS011;9031;50.974;11.330;2022-12-18T15:20:31;3.03;;;2.93;;
17814;SDS011;9031;50.974;11.330;2022-12-18T15:23:04;3.00;;;2.90;;
17814;SDS011;9031;50.974;11.330;2022-12-18T15:25:36;2.60;;;2.60;;
17814;SDS011;9031;50.974;11.330;2022-12-18T15:28:03;3.83;;;3.53;;
17814;SDS011;9031;50.974;11.330;2022-12-18T15:30:39;2.10;;;2.10;;
17814;SDS011;9031;50.974;11.330;2022-12-18T15:33:23;2.47;;;2.43;;
17814;SDS011;9031;50.974;11.330;2022-12-18T15:35:57;5.03;;;4.73;;
17814;SDS011;9031;50.974;11.330;2022-12-18T15:38:27;2.30;;;2.30;;
17814;SDS011;9031;50.974;11.330;2022-12-18T15:40:53;2.57;;;2.57;;
17814;SDS011;9031;50.974;11.330;2022-12-18T15:43:22;3.00;;;2.90;;
17814;SDS011;9031;50.974;11.330;2022-12-18T15:48:32;2.27;;;2.27;;
17814;SDS011;9031;50.974;11.330;2022-12-18T15:51:04;2.50;;;2.50;;
17814;SDS011;9031;50.974;11.330;2022-12-18T15:53:34;2.53;;;2.53;;
17814;SDS011;9031;50.974;11.330;2022-12-18T15:55:59;3.67;;;3.43;;
17814;SDS011;9031;50.974;11.330;2022-12-18T15:58:43;2.40;;;2.40;;
17814;SDS011;9031;50.974;11.330;2022-12-18T16:01:09;2.17;;;2.17;;
17814;SDS011;9031;50.974;11.330;2022-12-18T16:03:36;2.03;;;2.03;;
17814;SDS011;9031;50.974;11.330;2022-12-18T16:06:01;3.03;;;2.93;;
17814;SDS011;9031;50.974;11.330;2022-12-18T16:08:28;2.10;;;2.10;;
17814;SDS011;9031;50.974;11.330;2022-12-18T16:10:55;2.47;;;2.47;;
17814;SDS011;9031;50.974;11.330;2022-12-18T16:13:21;2.27;;;2.27;;
17814;SDS011;9031;50.974;11.330;2022-12-18T16:15:47;2.47;;;2.47;;
17814;SDS011;9031;50.974;11.330;2022-12-18T16:18:13;1.90;;;1.90;;
17814;SDS011;9031;50.974;11.330;2022-12-18T16:20:38;1.90;;;1.90;;
17814;SDS011;9031;50.974;11.330;2022-12-18T16:23:04;2.33;;;2.33;;
17814;SDS011;9031;50.974;11.330;2022-12-18T16:25:29;2.30;;;2.30;;
17814;SDS011;9031;50.974;11.330;2022-12-18T16:27:56;2.40;;;2.40;;
17814;SDS011;9031;50.974;11.330;2022-12-18T16:30:25;2.10;;;2.10;;
17814;SDS011;9031;50.974;11.330;2022-12-18T16:32:53;2.30;;;2.30;;
17814;SDS011;9031;50.974;11.330;2022-12-18T16:35:19;1.97;;;1.97;;
17814;SDS011;9031;50.974;11.330;2022-12-18T16:37:45;2.13;;;2.13;;